Terminal Aerodrome Forecast
Issued by NWS Twin Cities, MN

Home | Current Version | Previous Version | Text Only | Print | Product List | Glossary On
Versions: 1 2 3 4 5 6 7 8 9 10 11 12 13 14 15 16 17 18 19 20
000
FTUS43 KMPX 281740
TAFEAU
TAF
KEAU 281740Z 2818/2918 VRB04KT P6SM VCSH SCT012 SCT020 OVC050
      TEMPO 2818/2822 6SM -SHRA OVC035
     FM282200 16007KT P6SM VCSH SCT020 BKN050
      TEMPO 2823/2902 5SM -TSRA OVC030CB
     FM290800 21003KT 2SM BR SCT003 OVC012=

USA.gov is the U.S. government's official web portal to all federal, state and local government web resources and services.